Neva Corners, Wisconsin
Current Conditions -  °F | °C
As of 12:15 PM on Wednesday 26 Nov 2014 (Local Time) from KAIG Reporting Station
Overcast Overcast  
Wind Chill: 18°   Ceiling: 5000
Heat Index: 18°   Visibility: 7mi
Dew Point: 17°   Wind: 0mph
Humidity: 96%   Direction: NA
Pressure: 30.1"   Gusts: NA
Location:  45.2445°N, 89.211°W
Report Text: KAIG 261815Z AUTO 00000KT 7SM SCT044 BKN050 OVC060 M08/M08 A3010 RMK AO2 T10761081
Loading
Personal Weather Stations






























Interactive Weather Map New forecast layout! Learn more

10-Day Weather Forecast

Advertisements
Track Severe Weather on mobile